createdAt,value
2018-06-02T00:01:20.802Z,16.00
2018-06-02T00:03:50.503Z,16.10
2018-06-02T00:06:19.495Z,16.20
2018-06-02T00:08:48.145Z,16.20
2018-06-02T00:11:21.713Z,16.10
2018-06-02T00:13:50.407Z,16.20
2018-06-02T00:16:18.948Z,16.10
2018-06-02T00:18:47.529Z,16.20
2018-06-02T00:21:22.974Z,16.10
2018-06-02T00:23:51.522Z,16.10
2018-06-02T00:26:20.344Z,16.10
2018-06-02T00:28:48.933Z,16.20
2018-06-02T00:31:18.129Z,16.20
2018-06-02T00:33:50.791Z,16.00
2018-06-02T00:36:19.946Z,16.10
2018-06-02T00:41:23.439Z,15.90
2018-06-02T00:43:51.945Z,15.80
2018-06-02T00:46:21.677Z,15.70
2018-06-02T00:48:50.334Z,15.70
2018-06-02T00:51:18.947Z,15.70
2018-06-02T00:53:48.699Z,15.70
2018-06-02T00:56:17.209Z,15.70
2018-06-02T00:58:48.635Z,15.70
2018-06-02T01:01:18.291Z,15.70
2018-06-02T01:03:54.566Z,15.70
2018-06-02T01:06:23.173Z,15.70
2018-06-02T01:08:55.799Z,15.70
2018-06-02T01:11:24.935Z,15.70
2018-06-02T01:13:53.494Z,15.70
2018-06-02T01:16:22.191Z,15.60
2018-06-02T01:18:51.081Z,15.70
2018-06-02T01:21:19.707Z,15.70
2018-06-02T01:23:48.323Z,15.80
2018-06-02T01:26:16.847Z,16.00
2018-06-02T01:28:45.458Z,16.00
2018-06-02T01:31:14.725Z,16.10
2018-06-02T01:33:46.096Z,16.10
2018-06-02T01:36:15.323Z,16.10
2018-06-02T01:38:44.033Z,16.20
2018-06-02T01:41:12.586Z,16.20
2018-06-02T01:43:41.169Z,16.20
2018-06-02T01:46:09.665Z,16.20
2018-06-02T01:48:38.281Z,16.20
2018-06-02T01:51:06.935Z,16.10
2018-06-02T01:53:36.439Z,16.10
2018-06-02T01:56:05.239Z,16.10
2018-06-02T01:58:34.019Z,16.00
2018-06-02T02:01:02.907Z,15.90
2018-06-02T02:03:31.690Z,15.90
2018-06-02T02:06:00.255Z,15.90
2018-06-02T02:08:28.772Z,15.80
2018-06-02T02:10:57.459Z,15.70
2018-06-02T02:13:26.109Z,15.70
2018-06-02T02:15:55.926Z,15.70
2018-06-02T02:18:24.515Z,15.60
2018-06-02T02:20:53.350Z,15.60
2018-06-02T02:23:22.087Z,15.60
2018-06-02T02:25:50.720Z,15.60
2018-06-02T02:28:19.242Z,15.60
2018-06-02T02:30:49.024Z,15.60
2018-06-02T02:33:18.685Z,15.60
2018-06-02T02:35:49.651Z,15.60
2018-06-02T02:38:18.375Z,15.60
2018-06-02T02:40:47.049Z,15.50
2018-06-02T02:43:15.739Z,15.60
2018-06-02T02:45:44.262Z,15.60
2018-06-02T02:48:12.836Z,15.50
2018-06-02T02:50:42.500Z,15.40
2018-06-02T02:53:17.357Z,15.40
2018-06-02T02:55:46.081Z,15.40
2018-06-02T02:58:20.774Z,15.40
2018-06-02T03:00:49.473Z,15.30
2018-06-02T03:03:18.043Z,15.30
2018-06-02T03:05:48.825Z,15.30
2018-06-02T03:08:18.142Z,15.40
2018-06-02T03:10:49.055Z,15.40
2018-06-02T03:15:53.655Z,15.40
2018-06-02T03:18:22.561Z,15.40
2018-06-02T03:20:54.590Z,15.40
2018-06-02T03:23:24.307Z,15.30
2018-06-02T03:25:52.898Z,15.30
2018-06-02T03:28:21.359Z,15.30
2018-06-02T03:30:51.898Z,15.30
2018-06-02T03:35:54.311Z,15.20
2018-06-02T03:38:26.396Z,15.30
2018-06-02T03:40:56.187Z,15.20
2018-06-02T03:43:26.740Z,15.30
2018-06-02T03:48:31.018Z,15.30
2018-06-02T03:50:59.572Z,15.30
2018-06-02T03:53:28.122Z,15.30
2018-06-02T03:55:59.391Z,15.30
2018-06-02T03:58:31.667Z,15.40
2018-06-02T04:01:00.280Z,15.40
2018-06-02T04:03:28.850Z,15.30
2018-06-02T04:06:00.277Z,15.40
2018-06-02T04:08:29.860Z,15.40
2018-06-02T04:10:58.484Z,15.40
2018-06-02T04:13:27.960Z,15.50
2018-06-02T04:15:56.594Z,15.60
2018-06-02T04:18:26.275Z,15.60
2018-06-02T04:21:00.236Z,15.50
2018-06-02T04:23:28.876Z,15.50
2018-06-02T04:26:00.437Z,15.60
2018-06-02T04:28:36.766Z,15.60
2018-06-02T04:36:53.228Z,15.70
2018-06-02T04:42:02.803Z,15.60
2018-06-02T04:53:01.430Z,15.70
2018-06-02T04:55:32.136Z,15.70
2018-06-02T05:01:04.909Z,15.70
2018-06-02T05:06:40.482Z,15.70
2018-06-02T05:09:23.884Z,15.70
2018-06-02T05:12:02.528Z,15.70
2018-06-02T05:14:32.312Z,15.70
2018-06-02T05:17:09.447Z,15.60
2018-06-02T05:22:41.096Z,15.90
2018-06-02T05:25:09.695Z,15.90
2018-06-02T05:27:38.177Z,16.00
2018-06-02T05:39:57.916Z,16.10
2018-06-02T05:42:37.583Z,16.10
2018-06-02T05:48:19.275Z,16.00
2018-06-02T05:50:59.201Z,16.10
2018-06-02T05:56:39.074Z,16.10
2018-06-02T06:01:46.729Z,16.10
2018-06-02T06:04:34.305Z,16.10
2018-06-02T06:09:56.150Z,16.10
2018-06-02T06:12:29.874Z,16.10
2018-06-02T06:15:15.798Z,16.20
2018-06-02T06:17:45.719Z,16.20
2018-06-02T06:20:18.723Z,15.90
2018-06-02T06:22:48.472Z,15.90
2018-06-02T06:25:22.373Z,15.90
2018-06-02T06:27:54.264Z,16.00
2018-06-02T06:33:02.125Z,16.00
2018-06-02T06:38:19.830Z,15.90
2018-06-02T06:41:05.059Z,16.00
2018-06-02T06:46:30.001Z,15.90
2018-06-02T06:49:02.456Z,15.90
2018-06-02T06:51:31.215Z,15.90
2018-06-02T06:54:00.675Z,15.90
2018-06-02T06:59:26.937Z,16.00
2018-06-02T07:01:55.520Z,16.00
2018-06-02T07:04:23.998Z,16.00
2018-06-02T07:06:52.528Z,16.10
2018-06-02T07:09:21.126Z,16.00
2018-06-02T07:11:49.734Z,16.10
2018-06-02T07:14:18.355Z,16.20
2018-06-02T07:16:46.819Z,16.30
2018-06-02T07:19:15.375Z,16.60
2018-06-02T07:21:44.269Z,16.80
2018-06-02T07:24:13.132Z,17.00
2018-06-02T07:26:41.926Z,17.40
2018-06-02T07:29:14.223Z,17.30
2018-06-02T07:31:42.794Z,17.30
2018-06-02T07:34:20.168Z,17.30
2018-06-02T07:36:52.178Z,17.50
2018-06-02T07:39:20.651Z,17.50
2018-06-02T07:41:51.185Z,17.60
2018-06-02T07:44:19.750Z,17.50
2018-06-02T07:49:44.234Z,18.20
2018-06-02T07:52:12.803Z,18.50
2018-06-02T07:54:44.047Z,18.70
2018-06-02T07:57:13.299Z,19.10
2018-06-02T07:59:42.569Z,18.80
2018-06-02T08:02:11.073Z,18.30
2018-06-02T08:04:39.599Z,17.80
2018-06-02T08:07:08.870Z,18.30
2018-06-02T08:09:37.440Z,18.30
2018-06-02T08:12:06.031Z,18.40
2018-06-02T08:14:34.791Z,18.20
2018-06-02T08:17:03.361Z,18.30
2018-06-02T08:19:32.011Z,18.50
2018-06-02T08:22:00.566Z,18.70
2018-06-02T08:24:28.929Z,18.70
2018-06-02T08:26:57.486Z,18.80
2018-06-02T08:29:26.254Z,19.00
2018-06-02T08:31:54.851Z,19.00
2018-06-02T08:34:23.468Z,18.70
2018-06-02T08:36:51.975Z,18.70
2018-06-02T08:39:20.477Z,18.60
2018-06-02T08:41:49.054Z,18.40
2018-06-02T08:44:18.356Z,18.50
2018-06-02T08:46:46.590Z,18.60
2018-06-02T08:49:15.341Z,18.70
2018-06-02T08:51:45.189Z,18.60
2018-06-02T08:54:13.714Z,18.50
2018-06-02T08:56:47.606Z,18.40
2018-06-02T08:59:16.207Z,18.50
2018-06-02T09:01:44.769Z,18.50
2018-06-02T09:04:13.389Z,18.80
2018-06-02T09:06:41.883Z,18.70
2018-06-02T09:09:10.152Z,18.80
2018-06-02T09:11:38.601Z,18.60
2018-06-02T09:14:07.147Z,18.90
2018-06-02T09:16:35.691Z,18.40
2018-06-02T09:19:06.089Z,18.50
2018-06-02T09:21:34.590Z,18.80
2018-06-02T09:24:03.292Z,19.10
2018-06-02T09:26:32.647Z,19.00
2018-06-02T09:29:01.717Z,19.00
2018-06-02T09:31:30.973Z,19.00
2018-06-02T09:34:01.027Z,19.20
2018-06-02T09:36:30.053Z,19.30
2018-06-02T09:38:58.944Z,19.70
2018-06-02T09:41:27.671Z,19.80
2018-06-02T09:44:00.319Z,19.80
2018-06-02T09:46:39.724Z,19.60
2018-06-02T09:49:08.229Z,19.50
2018-06-02T09:51:36.911Z,19.40
2018-06-02T09:54:05.481Z,19.50
2018-06-02T09:56:33.775Z,19.60
2018-06-02T09:59:02.274Z,20.10
2018-06-02T10:01:30.629Z,20.40
2018-06-02T10:03:59.286Z,20.50
2018-06-02T10:06:27.833Z,20.40
2018-06-02T10:08:57.232Z,20.20
2018-06-02T10:11:25.638Z,20.10
2018-06-02T10:14:06.250Z,19.90
2018-06-02T10:16:51.735Z,19.80
2018-06-02T10:19:20.250Z,19.60
2018-06-02T10:21:48.790Z,19.20
2018-06-02T10:24:17.288Z,19.20
2018-06-02T10:26:45.836Z,19.20
2018-06-02T10:29:14.527Z,19.40
2018-06-02T10:32:01.307Z,19.60
2018-06-02T10:34:29.827Z,19.90
2018-06-02T10:36:58.322Z,20.10
2018-06-02T10:39:26.832Z,20.10
2018-06-02T10:41:55.284Z,20.00
2018-06-02T10:47:09.668Z,20.20
2018-06-02T10:49:38.421Z,20.20
2018-06-02T10:52:07.166Z,20.40
2018-06-02T10:54:37.609Z,20.40
2018-06-02T10:57:06.120Z,20.60
2018-06-02T10:59:34.828Z,20.40
2018-06-02T11:02:03.339Z,20.30
2018-06-02T11:04:32.218Z,20.40
2018-06-02T11:07:01.051Z,20.70
2018-06-02T11:09:29.862Z,20.70
2018-06-02T11:11:58.503Z,20.70
2018-06-02T11:14:28.303Z,20.70
2018-06-02T11:16:56.861Z,20.80
2018-06-02T11:19:25.319Z,20.50
2018-06-02T11:21:53.992Z,20.20
2018-06-02T11:24:22.655Z,20.00
2018-06-02T11:27:03.742Z,19.90
2018-06-02T11:29:37.015Z,20.00
2018-06-02T11:32:05.531Z,19.90
2018-06-02T11:34:34.050Z,19.80
2018-06-02T11:37:03.260Z,19.80
2018-06-02T11:39:31.828Z,19.80
2018-06-02T11:42:00.322Z,19.70
2018-06-02T11:44:34.379Z,19.70
2018-06-02T11:47:02.669Z,19.20
2018-06-02T11:49:31.158Z,19.10
2018-06-02T11:52:00.161Z,19.50
2018-06-02T11:54:28.876Z,19.80
2018-06-02T11:56:57.352Z,19.90
2018-06-02T11:59:25.814Z,19.90
2018-06-02T12:01:54.731Z,19.90
2018-06-02T12:04:23.807Z,20.10
2018-06-02T12:06:52.785Z,20.20
2018-06-02T12:09:21.374Z,20.30
2018-06-02T12:11:50.867Z,20.40
2018-06-02T12:14:19.415Z,20.40
2018-06-02T12:16:48.094Z,20.70
2018-06-02T12:19:16.707Z,20.90
2018-06-02T12:21:45.604Z,20.70
2018-06-02T12:24:14.144Z,20.40
2018-06-02T12:26:42.614Z,20.60
2018-06-02T12:31:59.584Z,21.00
2018-06-02T12:34:39.405Z,20.50
2018-06-02T12:37:08.333Z,20.80
2018-06-02T12:39:37.544Z,21.00
2018-06-02T12:42:08.706Z,20.90
2018-06-02T12:44:37.228Z,20.80
2018-06-02T12:50:09.010Z,20.80
2018-06-02T12:52:37.524Z,21.00
2018-06-02T12:55:07.221Z,21.20
2018-06-02T12:57:37.748Z,21.30
2018-06-02T13:00:06.632Z,21.80
2018-06-02T13:02:35.390Z,21.50
2018-06-02T13:05:04.044Z,22.00
2018-06-02T13:07:33.775Z,22.50
2018-06-02T13:10:02.240Z,22.50
2018-06-02T13:15:19.613Z,21.50
2018-06-02T13:20:44.040Z,21.20
2018-06-02T13:23:12.647Z,21.40
2018-06-02T13:28:44.270Z,21.20
2018-06-02T13:31:12.787Z,21.00
2018-06-02T13:33:44.270Z,20.60
2018-06-02T13:36:20.997Z,20.70
2018-06-02T13:38:50.637Z,20.90
2018-06-02T13:43:53.530Z,20.80
2018-06-02T13:46:23.437Z,20.50
2018-06-02T13:48:52.884Z,20.40
2018-06-02T13:54:26.800Z,20.00
2018-06-02T13:56:56.465Z,19.90
2018-06-02T13:59:25.018Z,19.80
2018-06-02T14:01:53.638Z,20.10
2018-06-02T14:04:37.254Z,20.10
2018-06-02T14:07:05.840Z,19.60
2018-06-02T14:09:37.651Z,19.50
2018-06-02T14:15:08.809Z,19.80
2018-06-02T14:17:37.423Z,20.10
2018-06-02T14:20:05.608Z,20.50
2018-06-02T14:22:34.286Z,20.30
2018-06-02T14:25:02.696Z,20.30
2018-06-02T14:27:36.399Z,20.20
2018-06-02T14:30:04.358Z,20.20
2018-06-02T14:32:32.779Z,19.50
2018-06-02T14:35:01.286Z,19.30
2018-06-02T14:37:29.687Z,19.70
2018-06-02T14:40:01.573Z,19.80
2018-06-02T14:42:30.162Z,19.40
2018-06-02T14:44:58.657Z,19.60
2018-06-02T14:47:27.203Z,19.20
2018-06-02T14:49:55.679Z,19.20
2018-06-02T14:52:24.797Z,18.90
2018-06-02T14:54:53.413Z,19.10
2018-06-02T14:57:22.078Z,19.30
2018-06-02T14:59:50.659Z,19.20
2018-06-02T15:02:19.152Z,19.10
2018-06-02T15:04:57.489Z,19.00
2018-06-02T15:07:29.481Z,19.10
2018-06-02T15:10:20.902Z,19.00
2018-06-02T15:12:51.257Z,19.00
2018-06-02T15:18:25.377Z,19.30
2018-06-02T15:23:50.070Z,19.30
2018-06-02T15:26:18.787Z,19.20
2018-06-02T15:28:49.217Z,19.30
2018-06-02T15:31:24.593Z,19.30
2018-06-02T15:42:36.296Z,19.50
2018-06-02T15:48:05.934Z,19.80
2018-06-02T15:50:34.514Z,19.90
2018-06-02T15:53:03.949Z,19.80
2018-06-02T15:55:32.575Z,19.80
2018-06-02T15:58:16.750Z,19.80
2018-06-02T16:00:45.302Z,19.60
2018-06-02T16:03:15.646Z,19.80
2018-06-02T16:05:45.189Z,19.90
2018-06-02T16:08:13.745Z,20.20
2018-06-02T16:13:38.401Z,20.20
2018-06-02T16:16:12.149Z,20.00
2018-06-02T16:18:40.740Z,20.10
2018-06-02T16:21:09.308Z,20.20
2018-06-02T16:23:42.288Z,20.30
2018-06-02T16:26:25.852Z,20.30
2018-06-02T16:28:54.994Z,20.40
2018-06-02T16:31:23.501Z,20.40
2018-06-02T16:33:52.202Z,20.40
2018-06-02T16:36:20.954Z,20.40
2018-06-02T16:44:57.656Z,20.40
2018-06-02T16:47:40.346Z,20.20
2018-06-02T16:53:30.060Z,20.00
2018-06-02T16:55:58.627Z,19.70
2018-06-02T17:01:29.874Z,19.50
2018-06-02T17:04:00.637Z,19.30
2018-06-02T17:06:29.132Z,19.00
2018-06-02T17:08:57.806Z,19.00
2018-06-02T17:11:26.469Z,19.00
2018-06-02T17:13:55.182Z,19.10
2018-06-02T17:19:26.572Z,19.10
2018-06-02T17:21:57.922Z,19.00
2018-06-02T17:24:29.578Z,19.10
2018-06-02T17:26:58.284Z,19.00
2018-06-02T17:29:26.819Z,18.90
2018-06-02T17:31:55.370Z,18.80
2018-06-02T17:34:24.058Z,18.80
2018-06-02T17:36:59.822Z,18.80
2018-06-02T17:39:28.420Z,18.90
2018-06-02T17:41:56.996Z,18.90
2018-06-02T17:44:25.839Z,19.00
2018-06-02T17:46:54.465Z,19.10
2018-06-02T17:49:22.994Z,19.20
2018-06-02T17:51:51.498Z,19.30
2018-06-02T17:54:19.996Z,19.20
2018-06-02T17:56:48.490Z,19.20
2018-06-02T17:59:16.930Z,19.30
2018-06-02T18:01:45.434Z,19.20
2018-06-02T18:04:13.955Z,19.20
2018-06-02T18:06:42.752Z,19.00
2018-06-02T18:09:11.561Z,19.00
2018-06-02T18:11:43.231Z,19.00
2018-06-02T18:14:12.277Z,19.00
2018-06-02T18:16:40.782Z,19.00
2018-06-02T18:19:09.272Z,19.00
2018-06-02T18:21:37.783Z,18.90
2018-06-02T18:24:05.954Z,18.80
2018-06-02T18:26:34.459Z,18.90
2018-06-02T18:29:03.418Z,18.90
2018-06-02T18:31:31.975Z,18.80
2018-06-02T18:34:00.540Z,18.80
2018-06-02T18:36:29.104Z,18.80
2018-06-02T18:38:57.773Z,18.70
2018-06-02T18:41:26.352Z,18.80
2018-06-02T18:43:55.144Z,18.80
2018-06-02T18:46:24.361Z,18.80
2018-06-02T18:48:52.925Z,18.80
2018-06-02T18:51:21.529Z,18.80
2018-06-02T18:53:50.035Z,18.70
2018-06-02T18:56:18.577Z,18.70
2018-06-02T18:58:47.211Z,18.50
2018-06-02T19:01:15.729Z,18.50
2018-06-02T19:03:44.243Z,18.40
2018-06-02T19:06:12.748Z,18.40
2018-06-02T19:08:41.735Z,18.50
2018-06-02T19:11:10.541Z,18.50
2018-06-02T19:13:39.076Z,18.40
2018-06-02T19:16:07.729Z,18.40
2018-06-02T19:18:36.687Z,18.30
2018-06-02T19:21:05.245Z,18.20
2018-06-02T19:23:34.008Z,18.00
2018-06-02T19:26:02.661Z,18.00
2018-06-02T19:28:31.156Z,17.90
2018-06-02T19:30:59.670Z,17.90
2018-06-02T19:33:28.180Z,17.80
2018-06-02T19:35:56.722Z,17.80
2018-06-02T19:38:25.370Z,17.80
2018-06-02T19:40:54.102Z,17.70
2018-06-02T19:43:22.750Z,17.70
2018-06-02T19:45:51.441Z,17.60
2018-06-02T19:48:20.028Z,17.50
2018-06-02T19:50:48.675Z,17.40
2018-06-02T19:53:17.176Z,17.30
2018-06-02T19:55:45.817Z,17.20
2018-06-02T19:58:14.287Z,17.10
2018-06-02T20:00:43.213Z,17.00
2018-06-02T20:03:11.759Z,16.90
2018-06-02T20:05:40.567Z,16.80
2018-06-02T20:08:09.145Z,16.80
2018-06-02T20:10:37.667Z,16.80
2018-06-02T20:13:06.175Z,16.70
2018-06-02T20:15:35.614Z,16.70
2018-06-02T20:18:04.457Z,16.60
2018-06-02T20:20:32.988Z,16.60
2018-06-02T20:23:01.528Z,16.50
2018-06-02T20:25:30.354Z,16.50
2018-06-02T20:27:58.867Z,16.40
2018-06-02T20:30:27.596Z,16.40
2018-06-02T20:32:56.204Z,16.20
2018-06-02T20:35:24.931Z,16.20
2018-06-02T20:37:53.626Z,16.20
2018-06-02T20:40:22.158Z,16.10
2018-06-02T20:42:50.834Z,16.10
2018-06-02T20:45:19.399Z,16.10
2018-06-02T20:47:47.950Z,16.00
2018-06-02T20:50:16.489Z,16.00
2018-06-02T20:52:45.030Z,16.00
2018-06-02T20:55:13.571Z,16.00
2018-06-02T20:57:41.823Z,15.90
2018-06-02T21:00:10.032Z,16.00
2018-06-02T21:02:38.557Z,15.90
2018-06-02T21:05:07.097Z,15.80
2018-06-02T21:07:35.610Z,15.80
2018-06-02T21:10:03.448Z,15.80
2018-06-02T21:12:31.966Z,15.70
2018-06-02T21:15:00.536Z,15.60
2018-06-02T21:17:29.032Z,15.60
2018-06-02T21:19:57.552Z,15.60
2018-06-02T21:25:18.976Z,15.50
2018-06-02T21:27:47.496Z,15.50
2018-06-02T21:30:15.998Z,15.50
2018-06-02T21:32:44.495Z,15.60
2018-06-02T21:35:13.008Z,15.50
2018-06-02T21:37:41.492Z,15.50
2018-06-02T21:44:00.467Z,15.60
2018-06-02T21:46:29.304Z,15.60
2018-06-02T21:53:57.910Z,15.60
2018-06-02T21:56:26.640Z,15.60
2018-06-02T21:58:55.448Z,15.60
2018-06-02T22:01:24.478Z,15.60
2018-06-02T22:03:53.630Z,15.60
2018-06-02T22:06:22.576Z,15.60
2018-06-02T22:08:53.931Z,15.60
2018-06-02T22:11:23.346Z,15.60
2018-06-02T22:13:52.744Z,15.70
2018-06-02T22:16:21.600Z,15.70
2018-06-02T22:18:50.358Z,15.70
2018-06-02T22:21:20.257Z,15.70
2018-06-02T22:23:49.286Z,15.70
2018-06-02T22:26:18.378Z,15.70
2018-06-02T22:28:47.293Z,15.70
2018-06-02T22:31:18.171Z,15.70
2018-06-02T22:33:47.139Z,15.80
2018-06-02T22:36:15.882Z,15.70
2018-06-02T22:38:44.630Z,15.80
2018-06-02T22:41:13.402Z,15.80
2018-06-02T22:43:46.728Z,15.80
2018-06-02T22:46:15.528Z,15.90
2018-06-02T22:48:44.328Z,15.90
